createdAt,value
2023-01-07T00:01:46.475Z,76.90
2023-01-07T00:04:17.596Z,76.90
2023-01-07T00:06:48.432Z,77.20
2023-01-07T00:09:18.234Z,75.70
2023-01-07T00:11:47.789Z,75.70
2023-01-07T00:14:17.037Z,77.80
2023-01-07T00:16:46.054Z,75.90
2023-01-07T00:19:17.349Z,76.20
2023-01-07T00:21:46.507Z,76.80
2023-01-07T00:24:18.112Z,75.80
2023-01-07T00:26:47.537Z,75.80
2023-01-07T00:29:18.018Z,75.20
2023-01-07T00:31:47.282Z,75.80
2023-01-07T00:34:16.638Z,75.90
2023-01-07T00:36:47.894Z,74.90
2023-01-07T00:39:22.449Z,74.90
2023-01-07T00:42:09.540Z,74.30
2023-01-07T00:44:38.915Z,75.00
2023-01-07T00:47:08.305Z,74.40
2023-01-07T00:49:37.740Z,74.30
2023-01-07T00:52:06.901Z,75.60
2023-01-07T00:54:35.891Z,76.10
2023-01-07T00:57:05.006Z,75.90
2023-01-07T00:59:34.026Z,75.40
2023-01-07T01:02:03.184Z,74.60
2023-01-07T01:04:32.288Z,76.00
2023-01-07T01:07:01.355Z,74.80
2023-01-07T01:09:30.477Z,75.90
2023-01-07T01:11:59.576Z,74.70
2023-01-07T01:14:28.562Z,73.70
2023-01-07T01:16:57.610Z,73.70
2023-01-07T01:19:26.640Z,75.10
2023-01-07T01:21:57.211Z,76.00
2023-01-07T01:24:26.197Z,75.20
2023-01-07T01:26:55.212Z,73.80
2023-01-07T01:29:24.612Z,73.50
2023-01-07T01:31:53.808Z,74.40
2023-01-07T01:34:23.033Z,73.60
2023-01-07T01:36:52.281Z,75.70
2023-01-07T01:39:21.842Z,73.40
2023-01-07T01:41:51.047Z,73.50
2023-01-07T01:44:50.036Z,72.90
2023-01-07T01:47:50.937Z,73.50
2023-01-07T01:50:49.148Z,72.80
2023-01-07T01:53:20.555Z,73.20
2023-01-07T01:55:53.325Z,72.60
2023-01-07T01:58:29.253Z,72.50
2023-01-07T02:00:58.378Z,72.20
2023-01-07T02:03:30.609Z,71.00
2023-01-07T02:05:59.756Z,72.20
2023-01-07T02:08:28.925Z,71.90
2023-01-07T02:11:29.247Z,70.70
2023-01-07T02:14:16.398Z,72.40
2023-01-07T02:17:23.057Z,72.20
2023-01-07T02:20:27.398Z,71.00
2023-01-07T02:23:16.416Z,70.20
2023-01-07T02:26:34.921Z,70.30
2023-01-07T02:29:25.173Z,70.30
2023-01-07T02:32:06.679Z,69.20
2023-01-07T02:34:50.596Z,69.70
2023-01-07T02:37:43.739Z,69.10
2023-01-07T02:40:28.861Z,69.50
2023-01-07T02:43:22.288Z,69.30
2023-01-07T02:46:07.651Z,68.60
2023-01-07T02:48:37.995Z,68.40
2023-01-07T02:51:07.133Z,68.10
2023-01-07T02:53:36.786Z,67.90
2023-01-07T02:56:20.776Z,68.10
2023-01-07T02:58:58.833Z,68.30
2023-01-07T03:01:48.370Z,66.90
2023-01-07T03:04:35.960Z,67.00
2023-01-07T03:07:22.311Z,65.10
2023-01-07T03:09:57.949Z,66.10
2023-01-07T03:13:12.404Z,66.00
2023-01-07T03:15:52.490Z,65.80
2023-01-07T03:18:28.859Z,64.60
2023-01-07T03:21:05.840Z,65.00
2023-01-07T03:23:40.738Z,66.10
2023-01-07T03:26:11.790Z,65.80
2023-01-07T03:28:42.815Z,65.40
2023-01-07T03:31:16.128Z,65.00
2023-01-07T03:34:00.840Z,61.60
2023-01-07T03:36:35.891Z,64.50
2023-01-07T03:39:06.462Z,63.70
2023-01-07T03:41:53.694Z,62.90
2023-01-07T03:44:22.684Z,63.20
2023-01-07T03:46:53.125Z,62.90
2023-01-07T03:49:22.168Z,64.60
2023-01-07T03:51:51.162Z,65.10
2023-01-07T03:54:20.249Z,63.50
2023-01-07T03:56:49.312Z,63.90
2023-01-07T03:59:18.264Z,64.10
2023-01-07T04:01:47.658Z,63.00
2023-01-07T04:04:16.859Z,62.60
2023-01-07T04:06:45.912Z,63.10
2023-01-07T04:09:22.993Z,63.20
2023-01-07T04:11:52.066Z,60.10
2023-01-07T04:14:21.119Z,62.00
2023-01-07T04:16:52.316Z,61.60
2023-01-07T04:19:21.577Z,59.10
2023-01-07T04:21:50.576Z,60.10
2023-01-07T04:24:19.699Z,60.90
2023-01-07T04:26:48.678Z,61.30
2023-01-07T04:29:20.040Z,61.40
2023-01-07T04:31:50.286Z,60.90
2023-01-07T04:34:19.400Z,60.90
2023-01-07T04:36:48.462Z,59.90
2023-01-07T04:39:18.939Z,55.80
2023-01-07T04:41:47.924Z,59.60
2023-01-07T04:44:18.673Z,58.00
2023-01-07T04:46:47.684Z,59.70
2023-01-07T04:49:16.634Z,59.00
2023-01-07T04:51:45.780Z,59.40
2023-01-07T04:54:15.067Z,59.80
2023-01-07T04:56:44.486Z,58.30
2023-01-07T04:59:13.447Z,59.70
2023-01-07T05:01:42.626Z,57.00
2023-01-07T05:04:11.890Z,55.90
2023-01-07T05:06:40.964Z,57.30
2023-01-07T05:09:10.056Z,55.90
2023-01-07T05:11:39.018Z,58.30
2023-01-07T05:14:07.972Z,58.60
2023-01-07T05:16:37.038Z,55.20
2023-01-07T05:19:06.136Z,59.50
2023-01-07T05:21:35.141Z,59.50
2023-01-07T05:24:04.296Z,57.70
2023-01-07T05:26:33.249Z,58.60
2023-01-07T05:29:02.498Z,58.40
2023-01-07T05:31:31.494Z,58.90
2023-01-07T05:34:00.533Z,56.90
2023-01-07T05:36:29.714Z,58.80
2023-01-07T05:38:58.792Z,59.10
2023-01-07T05:41:27.919Z,57.00
2023-01-07T05:43:57.134Z,56.90
2023-01-07T05:46:26.590Z,56.40
2023-01-07T05:48:55.589Z,56.80
2023-01-07T05:51:24.661Z,58.00
2023-01-07T05:53:53.796Z,57.70
2023-01-07T05:56:23.121Z,55.40
2023-01-07T05:58:52.173Z,57.00
2023-01-07T06:01:22.133Z,53.20
2023-01-07T06:03:51.200Z,52.50
2023-01-07T06:06:20.380Z,55.50
2023-01-07T06:08:49.472Z,55.80
2023-01-07T06:11:18.536Z,55.90
2023-01-07T06:13:47.568Z,53.80
2023-01-07T06:16:17.130Z,55.40
2023-01-07T06:18:46.186Z,54.20
2023-01-07T06:21:17.255Z,56.50
2023-01-07T06:23:46.633Z,53.80
2023-01-07T06:26:15.918Z,55.80
2023-01-07T06:28:44.915Z,54.80
2023-01-07T06:31:14.172Z,56.40
2023-01-07T06:33:43.143Z,53.80
2023-01-07T06:36:12.238Z,55.20
2023-01-07T06:38:42.723Z,55.40
2023-01-07T06:41:11.761Z,55.70
2023-01-07T06:43:40.782Z,51.80
2023-01-07T06:46:09.837Z,56.50
2023-01-07T06:48:38.890Z,52.60
2023-01-07T06:51:07.937Z,53.30
2023-01-07T06:53:37.013Z,54.00
2023-01-07T06:56:06.234Z,51.30
2023-01-07T06:58:35.337Z,53.40
2023-01-07T07:01:08.786Z,54.80
2023-01-07T07:03:37.897Z,54.60
2023-01-07T07:06:07.503Z,54.50
2023-01-07T07:08:36.558Z,56.40
2023-01-07T07:11:05.535Z,55.20
2023-01-07T07:13:34.476Z,54.20
2023-01-07T07:16:03.689Z,55.20
2023-01-07T07:18:33.826Z,55.50
2023-01-07T07:21:03.099Z,53.90
2023-01-07T07:23:32.055Z,53.50
2023-01-07T07:26:00.982Z,53.80
2023-01-07T07:28:29.929Z,54.70
2023-01-07T07:30:59.047Z,52.80
2023-01-07T07:33:28.009Z,53.50
2023-01-07T07:35:57.345Z,53.70
2023-01-07T07:38:26.372Z,51.70
2023-01-07T07:40:55.758Z,52.20
2023-01-07T07:43:24.871Z,52.00
2023-01-07T07:45:53.851Z,49.90
2023-01-07T07:48:22.814Z,53.90
2023-01-07T07:50:54.721Z,52.50
2023-01-07T07:53:23.802Z,50.00
2023-01-07T07:55:54.382Z,52.50
2023-01-07T07:58:23.637Z,49.60
2023-01-07T08:00:52.760Z,53.90
2023-01-07T08:03:21.918Z,50.40
2023-01-07T08:05:50.929Z,52.10
2023-01-07T08:08:19.984Z,51.30
2023-01-07T08:10:48.977Z,53.60
2023-01-07T08:13:17.987Z,53.60
2023-01-07T08:15:46.976Z,53.60
2023-01-07T08:18:16.052Z,53.70
2023-01-07T08:20:45.010Z,53.10
2023-01-07T08:23:14.027Z,53.10
2023-01-07T08:25:43.609Z,51.80
2023-01-07T08:28:13.017Z,53.00
2023-01-07T08:30:43.889Z,51.60
2023-01-07T08:33:13.196Z,53.60
2023-01-07T08:35:42.209Z,53.70
2023-01-07T08:38:11.577Z,52.40
2023-01-07T08:40:40.729Z,51.90
2023-01-07T08:43:13.483Z,51.60
2023-01-07T08:45:44.232Z,53.00
2023-01-07T08:48:13.244Z,53.50
2023-01-07T08:50:42.265Z,53.20
2023-01-07T08:53:11.317Z,53.00
2023-01-07T08:55:40.294Z,53.20
2023-01-07T08:58:09.323Z,53.50
2023-01-07T09:00:38.353Z,52.20
2023-01-07T09:03:07.629Z,52.40
2023-01-07T09:05:37.190Z,52.30
2023-01-07T09:08:06.471Z,52.00
2023-01-07T09:10:35.583Z,49.00
2023-01-07T09:13:04.606Z,52.50
2023-01-07T09:15:33.685Z,52.60
2023-01-07T09:18:04.718Z,51.80
2023-01-07T09:20:33.889Z,49.90
2023-01-07T09:23:02.896Z,52.40
2023-01-07T09:25:31.872Z,51.20
2023-01-07T09:28:00.850Z,51.70
2023-01-07T09:30:30.066Z,52.50
2023-01-07T09:32:59.127Z,52.20
2023-01-07T09:35:28.196Z,50.60
2023-01-07T09:37:57.268Z,53.10
2023-01-07T09:40:37.904Z,53.40
2023-01-07T09:43:12.307Z,49.90
2023-01-07T09:45:51.246Z,51.80
2023-01-07T09:48:37.695Z,52.30
2023-01-07T09:51:33.886Z,52.20
2023-01-07T09:54:06.578Z,52.20
2023-01-07T09:56:37.645Z,50.00
2023-01-07T09:59:07.668Z,52.70
2023-01-07T10:01:48.500Z,53.20
2023-01-07T10:04:39.784Z,53.30
2023-01-07T10:07:17.141Z,53.50
2023-01-07T10:10:04.253Z,53.90
2023-01-07T10:12:41.987Z,54.30
2023-01-07T10:15:55.236Z,54.70
2023-01-07T10:18:27.387Z,54.00
2023-01-07T10:21:16.362Z,54.50
2023-01-07T10:23:49.564Z,53.90
2023-01-07T10:26:31.865Z,54.00
2023-01-07T10:29:20.927Z,54.60
2023-01-07T10:31:53.006Z,54.20
2023-01-07T10:34:28.280Z,55.00
2023-01-07T10:37:05.680Z,55.30
2023-01-07T10:40:13.038Z,55.10
2023-01-07T10:42:54.948Z,54.40
2023-01-07T10:45:33.446Z,54.70
2023-01-07T10:48:19.363Z,54.90
2023-01-07T10:51:09.403Z,54.60
2023-01-07T10:54:00.108Z,54.60
2023-01-07T10:56:38.300Z,54.80
2023-01-07T10:59:09.919Z,55.00
2023-01-07T11:01:41.571Z,55.20
2023-01-07T11:04:16.157Z,55.40
2023-01-07T11:07:06.176Z,55.40
2023-01-07T11:09:37.470Z,55.30
2023-01-07T11:12:17.947Z,55.50
2023-01-07T11:14:48.234Z,55.60
2023-01-07T11:17:51.749Z,55.70
2023-01-07T11:20:47.210Z,55.50
2023-01-07T11:23:38.909Z,55.60
2023-01-07T11:26:07.879Z,55.80
2023-01-07T11:28:38.055Z,56.00
2023-01-07T11:31:07.528Z,56.10
2023-01-07T11:34:03.175Z,56.00
2023-01-07T11:36:44.954Z,56.10
2023-01-07T11:39:24.466Z,56.10
2023-01-07T11:41:56.475Z,56.30
2023-01-07T11:44:25.961Z,56.40
2023-01-07T11:46:56.256Z,56.40
2023-01-07T11:49:31.350Z,56.50
2023-01-07T11:52:00.829Z,56.50
2023-01-07T11:54:33.997Z,56.60
2023-01-07T11:57:24.307Z,56.70
2023-01-07T12:00:18.413Z,56.50
2023-01-07T12:02:57.582Z,56.60
2023-01-07T12:05:28.804Z,56.70
2023-01-07T12:08:00.126Z,56.90
2023-01-07T12:10:35.807Z,56.80
2023-01-07T12:13:08.557Z,56.90
2023-01-07T12:15:47.871Z,56.90
2023-01-07T12:18:41.314Z,56.90
2023-01-07T12:21:33.850Z,57.00
2023-01-07T12:24:24.809Z,57.10
2023-01-07T12:27:24.474Z,57.00
2023-01-07T12:29:56.267Z,57.00
2023-01-07T12:33:00.651Z,57.10
2023-01-07T12:35:39.929Z,57.20
2023-01-07T12:38:19.004Z,57.20
2023-01-07T12:40:50.705Z,57.30
2023-01-07T12:43:35.275Z,57.20
2023-01-07T12:46:13.623Z,57.20
2023-01-07T12:49:08.959Z,57.30
2023-01-07T12:52:09.159Z,57.30
2023-01-07T12:55:03.127Z,57.30
2023-01-07T12:57:40.512Z,57.40
2023-01-07T13:00:22.332Z,57.40
2023-01-07T13:02:58.318Z,57.50
2023-01-07T13:05:43.554Z,57.40
2023-01-07T13:08:36.749Z,57.30
2023-01-07T13:11:45.552Z,57.10
2023-01-07T13:14:39.509Z,57.10
2023-01-07T13:17:22.864Z,57.30
2023-01-07T13:19:53.697Z,57.30
2023-01-07T13:22:51.901Z,57.40
2023-01-07T13:25:34.104Z,57.30
2023-01-07T13:28:45.666Z,57.30
2023-01-07T13:31:20.695Z,57.40
2023-01-07T13:34:26.265Z,57.50
2023-01-07T13:37:06.994Z,57.70
2023-01-07T13:39:50.152Z,57.80
2023-01-07T13:42:46.461Z,57.90
2023-01-07T13:45:24.567Z,58.00
2023-01-07T13:47:56.894Z,58.10
2023-01-07T13:50:38.636Z,58.10
2023-01-07T13:53:09.233Z,58.30
2023-01-07T13:55:41.136Z,58.30
2023-01-07T13:58:46.204Z,59.00
2023-01-07T14:01:17.666Z,58.50
2023-01-07T14:03:59.534Z,58.70
2023-01-07T14:06:54.132Z,58.60
2023-01-07T14:09:27.184Z,58.70
2023-01-07T14:12:07.239Z,58.70
2023-01-07T14:14:44.727Z,58.90
2023-01-07T14:17:44.923Z,58.90
2023-01-07T14:20:58.545Z,59.10
2023-01-07T14:23:52.910Z,59.20
2023-01-07T14:26:45.057Z,59.40
2023-01-07T14:29:26.841Z,59.50
2023-01-07T14:32:30.043Z,59.30
2023-01-07T14:35:02.979Z,59.50
2023-01-07T14:37:34.874Z,59.30
2023-01-07T14:40:24.691Z,60.10
2023-01-07T14:42:54.367Z,59.40
2023-01-07T14:45:39.377Z,59.50
2023-01-07T14:48:13.830Z,59.50
2023-01-07T14:50:53.649Z,59.50
2023-01-07T14:53:46.951Z,59.50
2023-01-07T14:56:22.179Z,59.60
2023-01-07T14:59:09.679Z,59.60
2023-01-07T15:02:15.442Z,59.60
2023-01-07T15:04:59.548Z,59.80
2023-01-07T15:07:33.990Z,59.60
2023-01-07T15:10:34.147Z,59.70
2023-01-07T15:13:24.391Z,59.70
2023-01-07T15:16:02.469Z,60.50
2023-01-07T15:18:51.720Z,60.20
2023-01-07T15:21:57.099Z,59.70
2023-01-07T15:24:49.263Z,59.90
2023-01-07T15:27:38.989Z,59.90
2023-01-07T15:30:37.713Z,59.90
2023-01-07T15:33:37.231Z,59.90
2023-01-07T15:36:10.338Z,60.00
2023-01-07T15:38:53.873Z,59.90
2023-01-07T15:41:39.441Z,60.10
2023-01-07T15:44:27.844Z,60.10
2023-01-07T15:46:58.255Z,61.00
2023-01-07T15:49:30.966Z,60.30
2023-01-07T15:52:02.625Z,60.30
2023-01-07T15:54:32.049Z,60.30
2023-01-07T15:57:27.778Z,60.30
2023-01-07T15:59:58.348Z,60.30
2023-01-07T16:02:39.142Z,60.40
2023-01-07T16:05:08.810Z,60.60
2023-01-07T16:08:02.563Z,60.70
2023-01-07T16:10:34.758Z,60.40
2023-01-07T16:13:17.453Z,60.60
2023-01-07T16:15:46.829Z,60.60
2023-01-07T16:18:16.292Z,60.90
2023-01-07T16:21:00.667Z,60.70
2023-01-07T16:23:31.614Z,60.70
2023-01-07T16:26:22.471Z,61.20
2023-01-07T16:28:58.968Z,60.80
2023-01-07T16:31:30.601Z,60.80
2023-01-07T16:34:01.228Z,60.80
2023-01-07T16:36:37.797Z,61.70
2023-01-07T16:39:19.451Z,60.80
2023-01-07T16:41:48.742Z,60.90
2023-01-07T16:44:49.726Z,61.00
2023-01-07T16:47:30.114Z,61.00
2023-01-07T16:50:15.603Z,61.00
2023-01-07T16:52:53.287Z,61.20
2023-01-07T16:55:47.865Z,61.10
2023-01-07T16:58:42.869Z,61.40
2023-01-07T17:01:13.007Z,61.40
2023-01-07T17:04:01.181Z,61.40
2023-01-07T17:06:41.508Z,61.40
2023-01-07T17:09:37.565Z,61.30
2023-01-07T17:12:07.182Z,61.90
2023-01-07T17:14:49.835Z,61.80
2023-01-07T17:17:36.292Z,61.80
2023-01-07T17:20:31.384Z,61.60
2023-01-07T17:23:00.396Z,62.80
2023-01-07T17:25:30.254Z,61.80
2023-01-07T17:28:07.771Z,61.60
2023-01-07T17:30:38.458Z,61.60
2023-01-07T17:33:07.484Z,61.70
2023-01-07T17:35:46.498Z,61.70
2023-01-07T17:38:17.196Z,61.90
2023-01-07T17:40:47.102Z,61.80
2023-01-07T17:43:40.179Z,61.70
2023-01-07T17:46:13.450Z,61.70
2023-01-07T17:48:42.532Z,61.70
2023-01-07T17:51:13.063Z,61.80
2023-01-07T17:53:46.542Z,61.80
2023-01-07T17:56:15.822Z,61.80
2023-01-07T17:58:47.953Z,61.80
2023-01-07T18:01:24.309Z,61.90
2023-01-07T18:03:54.297Z,61.80
2023-01-07T18:06:25.727Z,61.80
2023-01-07T18:08:55.230Z,61.80
2023-01-07T18:11:46.318Z,61.90
2023-01-07T18:14:16.638Z,61.90
2023-01-07T18:16:45.730Z,62.00
2023-01-07T18:19:16.277Z,62.10
2023-01-07T18:21:45.254Z,62.90
2023-01-07T18:24:22.506Z,62.10
2023-01-07T18:26:51.827Z,62.20
2023-01-07T18:29:20.787Z,62.30
2023-01-07T18:31:49.783Z,62.10
2023-01-07T18:34:18.857Z,62.30
2023-01-07T18:36:48.080Z,62.30
2023-01-07T18:39:19.695Z,62.50
2023-01-07T18:41:51.993Z,62.60
2023-01-07T18:44:22.757Z,62.60
2023-01-07T18:46:52.034Z,62.60
2023-01-07T18:49:21.017Z,62.70
2023-01-07T18:51:50.528Z,62.80
2023-01-07T18:54:19.610Z,62.80
2023-01-07T18:56:48.995Z,62.80
2023-01-07T18:59:19.110Z,62.80
2023-01-07T19:01:48.255Z,63.00
2023-01-07T19:04:17.523Z,63.10
2023-01-07T19:06:46.569Z,63.10
2023-01-07T19:09:15.533Z,63.00
2023-01-07T19:11:44.524Z,63.00
2023-01-07T19:14:13.569Z,63.20
2023-01-07T19:16:42.675Z,63.20
2023-01-07T19:19:11.769Z,63.00
2023-01-07T19:21:40.778Z,63.10
2023-01-07T19:24:09.834Z,63.20
2023-01-07T19:26:38.865Z,63.30
2023-01-07T19:29:07.979Z,63.30
2023-01-07T19:31:37.528Z,63.30
2023-01-07T19:34:06.898Z,63.20
2023-01-07T19:36:36.191Z,63.30
2023-01-07T19:39:05.541Z,63.40
2023-01-07T19:41:35.246Z,63.40
2023-01-07T19:44:04.395Z,63.60
2023-01-07T19:46:35.912Z,63.60
2023-01-07T19:49:08.783Z,63.60
2023-01-07T19:51:39.575Z,63.60
2023-01-07T19:54:09.739Z,63.70
2023-01-07T19:56:40.714Z,63.70
2023-01-07T19:59:09.958Z,63.70
2023-01-07T20:01:39.968Z,63.90
2023-01-07T20:04:10.164Z,63.90
2023-01-07T20:06:42.784Z,63.90
2023-01-07T20:09:12.432Z,64.10
2023-01-07T20:11:43.569Z,64.30
2023-01-07T20:14:13.991Z,64.10
2023-01-07T20:16:43.525Z,64.10
2023-01-07T20:19:13.730Z,64.10
2023-01-07T20:21:43.330Z,64.20
2023-01-07T20:24:14.656Z,64.10
2023-01-07T20:26:43.601Z,64.30
2023-01-07T20:29:12.636Z,64.20
2023-01-07T20:31:41.800Z,64.40
2023-01-07T20:34:11.241Z,64.40
2023-01-07T20:36:40.253Z,64.50
2023-01-07T20:39:09.251Z,64.70
2023-01-07T20:41:39.763Z,64.60
2023-01-07T20:44:09.999Z,64.80
2023-01-07T20:46:40.398Z,64.90
2023-01-07T20:49:09.921Z,65.30
2023-01-07T20:51:39.708Z,65.90
2023-01-07T20:54:09.003Z,65.90
2023-01-07T20:56:38.097Z,65.80
2023-01-07T20:59:07.105Z,66.10
2023-01-07T21:01:36.471Z,65.70
2023-01-07T21:04:05.712Z,65.70
2023-01-07T21:06:34.744Z,65.70
2023-01-07T21:09:03.784Z,65.80
2023-01-07T21:11:33.813Z,66.80
2023-01-07T21:14:02.983Z,66.90
2023-01-07T21:16:32.118Z,66.80
2023-01-07T21:19:01.135Z,66.60
2023-01-07T21:21:30.112Z,66.80
2023-01-07T21:23:59.216Z,68.00
2023-01-07T21:26:28.183Z,67.00
2023-01-07T21:28:57.595Z,67.00
2023-01-07T21:31:27.634Z,67.20
2023-01-07T21:33:58.428Z,67.50
2023-01-07T21:36:29.091Z,66.60
2023-01-07T21:39:00.290Z,66.90
2023-01-07T21:41:30.074Z,67.00
2023-01-07T21:43:59.135Z,67.30
2023-01-07T21:46:28.494Z,67.00
2023-01-07T21:48:57.882Z,68.70
2023-01-07T21:51:30.222Z,67.20
2023-01-07T21:53:59.992Z,67.40
2023-01-07T21:56:33.363Z,67.20
2023-01-07T21:59:02.713Z,67.20
2023-01-07T22:01:31.977Z,67.10
2023-01-07T22:04:01.619Z,67.30
2023-01-07T22:06:36.191Z,67.20
2023-01-07T22:09:08.475Z,67.10
2023-01-07T22:11:40.094Z,67.30
2023-01-07T22:14:14.158Z,67.30
2023-01-07T22:16:43.712Z,67.30
2023-01-07T22:19:15.680Z,67.30
2023-01-07T22:21:44.741Z,67.40
2023-01-07T22:24:15.554Z,67.30
2023-01-07T22:26:44.750Z,67.30
2023-01-07T22:29:14.125Z,67.30
2023-01-07T22:31:43.376Z,67.30
2023-01-07T22:34:12.427Z,67.30
2023-01-07T22:36:53.102Z,67.40
2023-01-07T22:39:31.836Z,67.50
2023-01-07T22:42:07.052Z,67.40
2023-01-07T22:44:42.239Z,67.40
2023-01-07T22:47:17.855Z,67.40
2023-01-07T22:49:47.650Z,67.40
2023-01-07T22:52:16.710Z,67.50
2023-01-07T22:54:45.895Z,67.50
2023-01-07T22:57:15.475Z,67.40
2023-01-07T22:59:47.018Z,67.60
2023-01-07T23:02:16.217Z,68.50
2023-01-07T23:04:45.209Z,67.90
2023-01-07T23:07:14.167Z,69.80
2023-01-07T23:09:43.169Z,68.70
2023-01-07T23:12:14.461Z,69.00
2023-01-07T23:14:43.502Z,68.70
2023-01-07T23:17:12.474Z,68.30
2023-01-07T23:19:41.502Z,68.30
2023-01-07T23:22:10.434Z,68.20
2023-01-07T23:24:39.471Z,68.00
2023-01-07T23:27:08.501Z,68.50
2023-01-07T23:29:37.479Z,68.30
2023-01-07T23:32:06.888Z,68.80
2023-01-07T23:34:36.416Z,69.70
2023-01-07T23:37:05.990Z,69.80
2023-01-07T23:39:34.957Z,68.60
2023-01-07T23:42:04.930Z,68.50
2023-01-07T23:44:34.011Z,68.30
2023-01-07T23:47:03.031Z,68.60
2023-01-07T23:49:33.103Z,68.80
2023-01-07T23:52:02.066Z,68.60
2023-01-07T23:54:31.204Z,68.40
2023-01-07T23:57:00.294Z,68.90
2023-01-07T23:59:29.295Z,68.60
